createdAt,value
2019-05-12T00:00:28.732Z,92.78
2019-05-12T00:01:28.573Z,92.68
2019-05-12T00:02:28.720Z,92.68
2019-05-12T00:03:27.645Z,92.78
2019-05-12T00:04:28.085Z,92.88
2019-05-12T00:05:27.934Z,92.88
2019-05-12T00:06:28.412Z,92.93
2019-05-12T00:07:28.557Z,92.82
2019-05-12T00:08:27.733Z,93.02
2019-05-12T00:09:28.285Z,93.13
2019-05-12T00:10:28.266Z,92.82
2019-05-12T00:11:28.788Z,92.82
2019-05-12T00:12:27.803Z,93.33
2019-05-12T00:13:27.921Z,93.70
2019-05-12T00:14:28.289Z,93.90
2019-05-12T00:15:27.990Z,93.80
2019-05-12T00:16:28.348Z,93.80
2019-05-12T00:17:28.439Z,94.11
2019-05-12T00:18:28.456Z,94.32
2019-05-12T00:19:28.587Z,94.42
2019-05-12T00:20:28.386Z,94.42
2019-05-12T00:21:28.269Z,94.32
2019-05-12T00:22:28.642Z,94.21
2019-05-12T00:23:30.820Z,94.36
2019-05-12T00:24:27.971Z,94.46
2019-05-12T00:25:28.301Z,94.36
2019-05-12T00:26:28.257Z,93.95
2019-05-12T00:27:28.468Z,94.26
2019-05-12T00:28:28.430Z,94.78
2019-05-12T00:29:28.712Z,95.40
2019-05-12T00:30:27.729Z,95.81
2019-05-12T00:31:28.102Z,95.81
2019-05-12T00:32:28.243Z,95.87
2019-05-12T00:33:28.215Z,95.56
2019-05-12T00:34:28.900Z,95.25
2019-05-12T00:35:28.450Z,94.89
2019-05-12T00:36:29.094Z,94.58
2019-05-12T00:37:28.861Z,94.17
2019-05-12T00:38:27.851Z,93.96
2019-05-12T00:39:27.883Z,93.81
2019-05-12T00:40:28.030Z,93.40
2019-05-12T00:41:28.398Z,92.98
2019-05-12T00:42:28.754Z,92.88
2019-05-12T00:43:28.088Z,92.53
2019-05-12T00:44:28.416Z,92.43
2019-05-12T00:45:29.311Z,92.01
2019-05-12T00:46:38.378Z,91.91
2019-05-12T00:47:28.069Z,91.60
2019-05-12T00:48:28.432Z,91.70
2019-05-12T00:49:28.865Z,91.39
2019-05-12T00:50:28.923Z,91.18
2019-05-12T00:51:28.833Z,91.28
2019-05-12T00:52:28.134Z,91.28
2019-05-12T00:53:39.460Z,91.43
2019-05-12T00:54:28.432Z,91.53
2019-05-12T00:55:28.762Z,91.85
2019-05-12T00:56:28.392Z,92.05
2019-05-12T00:57:28.647Z,92.20
2019-05-12T00:58:27.802Z,92.30
2019-05-12T00:59:27.950Z,92.41
2019-05-12T01:00:29.334Z,92.61
2019-05-12T01:01:28.606Z,92.72
2019-05-12T01:02:28.676Z,92.72
2019-05-12T01:03:28.069Z,92.97
2019-05-12T01:04:28.941Z,93.07
2019-05-12T01:05:29.165Z,93.49
2019-05-12T01:06:28.263Z,93.70
2019-05-12T01:07:27.747Z,93.80
2019-05-12T01:08:28.050Z,93.80
2019-05-12T01:09:28.181Z,93.49
2019-05-12T01:10:28.580Z,93.59
2019-05-12T01:11:28.636Z,93.49
2019-05-12T01:12:28.491Z,93.49
2019-05-12T01:13:27.959Z,93.59
2019-05-12T01:14:27.843Z,93.70
2019-05-12T01:15:28.764Z,93.90
2019-05-12T01:16:28.690Z,94.01
2019-05-12T01:17:28.206Z,94.01
2019-05-12T01:18:28.068Z,94.01
2019-05-12T01:19:28.638Z,94.11
2019-05-12T01:20:28.437Z,94.05
2019-05-12T01:21:28.555Z,93.95
2019-05-12T01:22:27.730Z,94.15
2019-05-12T01:23:28.075Z,94.05
2019-05-12T01:24:28.157Z,93.95
2019-05-12T01:25:28.753Z,94.26
2019-05-12T01:26:28.304Z,94.57
2019-05-12T01:27:28.631Z,94.67
2019-05-12T01:28:27.849Z,94.67
2019-05-12T01:29:28.213Z,94.46
2019-05-12T01:30:28.421Z,94.46
2019-05-12T01:31:28.483Z,94.36
2019-05-12T01:32:28.599Z,94.42
2019-05-12T01:33:27.721Z,94.11
2019-05-12T01:34:27.727Z,94.01
2019-05-12T01:35:28.233Z,93.90
2019-05-12T01:36:28.487Z,93.90
2019-05-12T01:37:28.004Z,94.01
2019-05-12T01:38:28.563Z,93.70
2019-05-12T01:39:27.744Z,93.49
2019-05-12T01:40:28.718Z,93.70
2019-05-12T01:41:28.499Z,93.33
2019-05-12T01:42:28.492Z,93.13
2019-05-12T01:43:27.790Z,93.13
2019-05-12T01:44:28.609Z,93.02
2019-05-12T01:45:28.468Z,92.61
2019-05-12T01:46:28.266Z,92.82
2019-05-12T01:47:28.934Z,92.72
2019-05-12T01:48:28.523Z,92.61
2019-05-12T01:49:26.137Z,92.61
2019-05-12T01:50:28.412Z,92.41
2019-05-12T01:51:28.302Z,92.41
2019-05-12T01:52:28.412Z,92.51
2019-05-12T01:53:28.523Z,92.41
2019-05-12T01:54:27.828Z,92.30
2019-05-12T01:55:28.111Z,92.51
2019-05-12T01:56:26.038Z,92.36
2019-05-12T01:57:26.065Z,92.36
2019-05-12T01:58:27.826Z,92.26
2019-05-12T01:59:26.050Z,92.26
2019-05-12T02:00:28.190Z,92.16
2019-05-12T02:01:28.060Z,92.05
2019-05-12T02:02:28.427Z,92.05
2019-05-12T02:03:28.215Z,92.16
2019-05-12T02:04:25.961Z,92.16
2019-05-12T02:05:27.983Z,92.16
2019-05-12T02:06:27.846Z,92.16
2019-05-12T02:07:27.930Z,92.16
2019-05-12T02:08:27.864Z,92.16
2019-05-12T02:09:27.890Z,92.26
2019-05-12T02:10:28.287Z,92.36
2019-05-12T02:11:25.907Z,92.26
2019-05-12T02:12:25.900Z,92.47
2019-05-12T02:13:27.701Z,92.57
2019-05-12T02:14:27.592Z,92.57
2019-05-12T02:15:27.854Z,92.47
2019-05-12T02:16:28.076Z,92.57
2019-05-12T02:17:28.191Z,92.57
2019-05-12T02:18:28.099Z,92.57
2019-05-12T02:19:28.141Z,92.68
2019-05-12T02:20:25.827Z,92.57
2019-05-12T02:21:27.812Z,92.47
2019-05-12T02:22:27.892Z,92.57
2019-05-12T02:23:28.053Z,92.47
2019-05-12T02:24:29.775Z,92.57
2019-05-12T02:25:25.773Z,92.68
2019-05-12T02:26:25.749Z,92.78
2019-05-12T02:27:28.296Z,92.68
2019-05-12T02:28:25.715Z,92.78
2019-05-12T02:29:25.736Z,92.78
2019-05-12T02:30:29.749Z,92.88
2019-05-12T02:31:29.130Z,92.78
2019-05-12T02:32:35.598Z,92.57
2019-05-12T02:33:26.670Z,92.72
2019-05-12T02:34:25.775Z,92.82
2019-05-12T02:35:25.656Z,92.82
2019-05-12T02:36:26.042Z,92.82
2019-05-12T02:37:26.381Z,92.82
2019-05-12T02:38:25.608Z,92.82
2019-05-12T02:39:25.593Z,92.93
2019-05-12T02:40:25.778Z,93.02
2019-05-12T02:41:26.194Z,93.02
2019-05-12T02:42:25.588Z,93.07
2019-05-12T02:43:25.557Z,93.07
2019-05-12T02:44:25.560Z,93.18
2019-05-12T02:45:25.915Z,93.28
2019-05-12T02:46:25.908Z,93.49
2019-05-12T02:47:25.517Z,93.49
2019-05-12T02:48:25.499Z,93.70
2019-05-12T02:49:25.519Z,93.70
2019-05-12T02:50:25.496Z,93.70
2019-05-12T02:51:25.523Z,93.90
2019-05-12T02:52:25.485Z,93.90
2019-05-12T02:53:25.457Z,94.01
2019-05-12T02:54:45.974Z,93.90
2019-05-12T02:55:26.426Z,93.70
2019-05-12T02:56:26.074Z,93.80
2019-05-12T02:57:25.831Z,93.80
2019-05-12T02:58:25.595Z,93.80
2019-05-12T02:59:25.690Z,93.80
2019-05-12T03:00:25.383Z,93.84
2019-05-12T03:01:25.388Z,93.84
2019-05-12T03:02:25.376Z,93.84
2019-05-12T03:03:25.379Z,93.95
2019-05-12T03:04:25.357Z,94.05
2019-05-12T03:05:25.366Z,94.15
2019-05-12T03:06:25.415Z,94.30
2019-05-12T03:07:25.719Z,94.51
2019-05-12T03:08:25.910Z,94.61
2019-05-12T03:09:25.366Z,94.71
2019-05-12T03:10:25.441Z,94.82
2019-05-12T03:11:25.291Z,94.92
2019-05-12T03:12:25.777Z,95.07
2019-05-12T03:13:25.597Z,95.38
2019-05-12T03:14:25.500Z,95.38
2019-05-12T03:15:25.346Z,95.48
2019-05-12T03:16:25.790Z,95.38
2019-05-12T03:17:25.492Z,95.59
2019-05-12T03:18:25.594Z,95.90
2019-05-12T03:19:25.429Z,96.21
2019-05-12T03:20:25.187Z,96.52
2019-05-12T03:21:25.162Z,96.52
2019-05-12T03:22:25.435Z,96.52
2019-05-12T03:23:25.196Z,96.42
2019-05-12T03:24:25.344Z,96.37
2019-05-12T03:25:29.936Z,96.37
2019-05-12T03:26:26.132Z,96.17
2019-05-12T03:27:25.746Z,96.06
2019-05-12T03:28:25.832Z,95.96
2019-05-12T03:29:25.377Z,95.75
2019-05-12T03:30:28.986Z,95.54
2019-05-12T03:31:31.357Z,95.34
2019-05-12T03:32:28.140Z,95.29
2019-05-12T03:33:27.956Z,95.29
2019-05-12T03:34:29.527Z,95.29
2019-05-12T03:35:32.477Z,95.29
2019-05-12T03:36:32.261Z,95.19
2019-05-12T03:37:30.780Z,95.19
2019-05-12T03:38:27.804Z,95.09
2019-05-12T03:39:25.239Z,95.09
2019-05-12T03:40:25.150Z,94.88
2019-05-12T03:41:25.252Z,94.67
2019-05-12T03:42:25.359Z,94.32
2019-05-12T03:43:24.954Z,94.21
2019-05-12T03:44:25.291Z,93.90
2019-05-12T03:45:25.262Z,93.70
2019-05-12T03:46:25.057Z,93.59
2019-05-12T03:47:25.432Z,93.38
2019-05-12T03:48:25.389Z,93.28
2019-05-12T03:49:24.918Z,93.13
2019-05-12T03:50:24.873Z,92.93
2019-05-12T03:51:25.338Z,92.51
2019-05-12T03:52:24.853Z,92.51
2019-05-12T03:53:25.097Z,92.20
2019-05-12T03:54:24.841Z,92.35
2019-05-12T03:55:35.483Z,92.45
2019-05-12T03:56:26.347Z,92.66
2019-05-12T03:57:25.437Z,92.76
2019-05-12T03:58:25.588Z,92.86
2019-05-12T03:59:25.607Z,92.61
2019-05-12T04:00:25.032Z,92.41
2019-05-12T04:01:25.504Z,92.51
2019-05-12T04:02:25.286Z,92.20
2019-05-12T04:03:24.982Z,91.64
2019-05-12T04:04:24.819Z,91.53
2019-05-12T04:05:24.723Z,90.81
2019-05-12T04:06:24.937Z,90.60
2019-05-12T04:07:24.717Z,90.60
2019-05-12T04:08:24.808Z,90.70
2019-05-12T04:09:24.809Z,90.60
2019-05-12T04:10:24.966Z,90.14
2019-05-12T04:11:25.157Z,90.04
2019-05-12T04:12:25.595Z,90.14
2019-05-12T04:13:26.499Z,90.35
2019-05-12T04:14:25.377Z,90.04
2019-05-12T04:15:25.564Z,90.25
2019-05-12T04:16:24.985Z,90.04
2019-05-12T04:17:24.655Z,89.83
2019-05-12T04:18:24.867Z,89.62
2019-05-12T04:19:25.035Z,89.62
2019-05-12T04:20:25.557Z,89.94
2019-05-12T04:21:24.736Z,90.14
2019-05-12T04:22:25.010Z,90.35
2019-05-12T04:23:25.066Z,90.04
2019-05-12T04:24:25.092Z,89.73
2019-05-12T04:25:25.178Z,89.62
2019-05-12T04:26:25.567Z,89.94
2019-05-12T04:27:25.274Z,89.62
2019-05-12T04:28:24.713Z,89.83
2019-05-12T04:29:25.135Z,89.62
2019-05-12T04:30:25.215Z,89.73
2019-05-12T04:31:25.193Z,89.42
2019-05-12T04:32:25.168Z,89.42
2019-05-12T04:33:25.724Z,89.52
2019-05-12T04:34:25.278Z,89.42
2019-05-12T04:35:25.323Z,89.17
2019-05-12T04:36:24.993Z,89.17
2019-05-12T04:37:25.030Z,88.96
2019-05-12T04:38:25.011Z,88.96
2019-05-12T04:39:25.269Z,88.55
2019-05-12T04:40:24.903Z,88.09
2019-05-12T04:41:26.079Z,87.78
2019-05-12T04:42:25.270Z,87.33
2019-05-12T04:43:25.391Z,86.81
2019-05-12T04:44:25.111Z,86.29
2019-05-12T04:45:25.538Z,85.84
2019-05-12T04:46:25.179Z,86.15
2019-05-12T04:47:25.271Z,85.57
2019-05-12T04:48:25.904Z,85.88
2019-05-12T04:49:25.205Z,86.19
2019-05-12T04:50:24.714Z,85.84
2019-05-12T04:51:25.983Z,86.15
2019-05-12T04:52:24.933Z,85.63
2019-05-12T04:53:25.126Z,85.94
2019-05-12T04:54:24.840Z,85.42
2019-05-12T04:55:25.641Z,85.32
2019-05-12T04:56:24.985Z,85.74
2019-05-12T04:57:25.422Z,86.05
2019-05-12T04:58:25.522Z,86.05
2019-05-12T04:59:25.374Z,86.05
2019-05-12T05:00:25.729Z,85.74
2019-05-12T05:01:25.345Z,85.94
2019-05-12T05:02:25.269Z,85.63
2019-05-12T05:03:24.814Z,85.53
2019-05-12T05:04:24.604Z,86.05
2019-05-12T05:05:24.912Z,86.25
2019-05-12T05:06:25.301Z,85.49
2019-05-12T05:07:24.484Z,85.53
2019-05-12T05:08:24.561Z,85.91
2019-05-12T05:09:24.674Z,85.39
2019-05-12T05:10:24.901Z,85.18
2019-05-12T05:11:24.914Z,85.18
2019-05-12T05:12:24.102Z,85.18
2019-05-12T05:13:24.537Z,85.08
2019-05-12T05:14:24.756Z,85.49
2019-05-12T05:15:24.948Z,85.49
2019-05-12T05:16:24.998Z,84.97
2019-05-12T05:17:24.545Z,84.21
2019-05-12T05:18:24.005Z,81.82
2019-05-12T05:19:24.455Z,79.14
2019-05-12T05:20:24.089Z,77.80
2019-05-12T05:21:24.155Z,78.11
2019-05-12T05:22:24.319Z,78.21
2019-05-12T05:23:24.316Z,79.27
2019-05-12T05:24:23.882Z,78.72
2019-05-12T05:25:23.919Z,78.17
2019-05-12T05:26:27.873Z,77.86
2019-05-12T05:27:24.656Z,77.55
2019-05-12T05:28:27.733Z,77.45
2019-05-12T05:29:29.201Z,77.55
2019-05-12T05:30:24.821Z,78.17
2019-05-12T05:31:24.434Z,77.90
2019-05-12T05:32:23.783Z,78.52
2019-05-12T05:33:24.021Z,78.79
2019-05-12T05:34:23.806Z,77.83
2019-05-12T05:35:23.970Z,77.86
2019-05-12T05:36:24.985Z,77.35
2019-05-12T05:37:23.998Z,77.55
2019-05-12T05:38:23.807Z,78.21
2019-05-12T05:39:24.343Z,78.28
2019-05-12T05:40:28.404Z,74.26
2019-05-12T05:41:24.802Z,70.43
2019-05-12T05:42:28.427Z,66.88
2019-05-12T05:43:24.752Z,65.62
2019-05-12T05:44:24.087Z,63.82
2019-05-12T05:45:26.373Z,64.29
2019-05-12T05:46:24.171Z,67.28
2019-05-12T05:47:25.601Z,69.47
2019-05-12T05:48:24.189Z,69.40
2019-05-12T05:49:23.889Z,70.59
2019-05-12T05:50:29.218Z,70.12
2019-05-12T05:51:24.590Z,68.14
2019-05-12T05:52:24.523Z,66.16
2019-05-12T05:53:24.566Z,65.42
2019-05-12T05:54:31.513Z,63.82
2019-05-12T05:55:24.533Z,63.18
2019-05-12T05:56:38.441Z,62.05
2019-05-12T05:57:28.279Z,62.02
2019-05-12T05:58:26.191Z,61.18
2019-05-12T05:59:31.146Z,60.92
2019-05-12T06:00:26.331Z,59.05
2019-05-12T06:01:24.501Z,58.75
2019-05-12T06:02:32.014Z,58.98
2019-05-12T06:03:27.779Z,59.18
2019-05-12T06:04:23.898Z,59.26
2019-05-12T06:05:26.310Z,58.72
2019-05-12T06:06:24.421Z,58.31
2019-05-12T06:07:34.475Z,58.72
2019-05-12T06:08:24.392Z,57.80
2019-05-12T06:09:23.660Z,58.11
2019-05-12T06:10:34.901Z,58.44
2019-05-12T06:11:28.356Z,59.16
2019-05-12T06:12:23.999Z,58.21
2019-05-12T06:13:29.912Z,57.29
2019-05-12T06:14:24.346Z,56.32
2019-05-12T06:15:23.621Z,55.48
2019-05-12T06:16:25.128Z,54.74
2019-05-12T06:17:23.669Z,53.80
2019-05-12T06:18:23.980Z,54.16
2019-05-12T06:19:26.049Z,55.20
2019-05-12T06:20:23.833Z,56.22
2019-05-12T06:21:24.174Z,56.17
2019-05-12T06:22:23.633Z,56.99
2019-05-12T06:23:24.026Z,56.22
2019-05-12T06:24:23.920Z,55.55
2019-05-12T06:25:26.462Z,53.29
2019-05-12T06:26:30.811Z,53.47
2019-05-12T06:27:24.414Z,55.46
2019-05-12T06:28:23.529Z,54.00
2019-05-12T06:29:25.101Z,53.27
2019-05-12T06:30:24.293Z,53.65
2019-05-12T06:31:25.203Z,51.11
2019-05-12T06:32:25.074Z,52.48
2019-05-12T06:33:31.337Z,52.58
2019-05-12T06:34:24.146Z,53.19
2019-05-12T06:35:24.068Z,52.48
2019-05-12T06:36:27.061Z,53.34
2019-05-12T06:37:23.731Z,54.03
2019-05-12T06:38:23.656Z,54.33
2019-05-12T06:39:23.553Z,53.90
2019-05-12T06:40:24.338Z,52.25
2019-05-12T06:41:25.763Z,52.33
2019-05-12T06:42:24.198Z,50.88
2019-05-12T06:43:24.362Z,50.35
2019-05-12T06:44:24.011Z,50.84
2019-05-12T06:45:23.554Z,50.98
2019-05-12T06:46:34.092Z,52.23
2019-05-12T06:47:24.069Z,52.76
2019-05-12T06:48:28.469Z,53.27
2019-05-12T06:49:24.623Z,51.84
2019-05-12T06:50:23.763Z,54.00
2019-05-12T06:51:25.737Z,56.91
2019-05-12T06:52:23.709Z,58.42
2019-05-12T06:53:29.061Z,60.47
2019-05-12T06:54:24.747Z,61.24
2019-05-12T06:55:23.799Z,58.23
2019-05-12T06:56:23.585Z,56.55
2019-05-12T06:57:28.397Z,54.69
2019-05-12T06:58:27.666Z,54.69
2019-05-12T06:59:23.884Z,54.03
2019-05-12T07:00:30.606Z,55.10
2019-05-12T07:01:24.372Z,55.30
2019-05-12T07:02:24.481Z,54.57
2019-05-12T07:03:26.186Z,54.33
2019-05-12T07:04:24.126Z,53.90
2019-05-12T07:05:23.332Z,51.97
2019-05-12T07:06:24.801Z,52.68
2019-05-12T07:07:25.586Z,52.25
2019-05-12T07:08:31.346Z,52.33
2019-05-12T07:09:28.009Z,52.00
2019-05-12T07:10:36.657Z,50.76
2019-05-12T07:11:24.496Z,51.62
2019-05-12T07:12:24.892Z,53.59
2019-05-12T07:13:29.222Z,53.47
2019-05-12T07:14:27.076Z,52.03
2019-05-12T07:15:23.396Z,53.02
2019-05-12T07:16:29.816Z,54.21
2019-05-12T07:17:23.931Z,52.40
2019-05-12T07:18:25.952Z,50.98
2019-05-12T07:19:25.559Z,51.09
2019-05-12T07:20:24.066Z,51.16
2019-05-12T07:21:26.521Z,51.92
2019-05-12T07:22:25.679Z,55.22
2019-05-12T07:23:26.078Z,54.85
2019-05-12T07:24:23.955Z,55.10
2019-05-12T07:25:30.862Z,57.01
2019-05-12T07:26:23.674Z,58.91
2019-05-12T07:27:35.755Z,60.57
2019-05-12T07:28:23.786Z,61.44
2019-05-12T07:29:23.877Z,62.93
2019-05-12T07:30:24.019Z,63.75
2019-05-12T07:31:23.348Z,63.65
2019-05-12T07:32:24.621Z,63.78
2019-05-12T07:33:23.336Z,63.50
2019-05-12T07:34:24.043Z,61.61
2019-05-12T07:35:24.036Z,56.15
2019-05-12T07:36:24.230Z,57.14
2019-05-12T07:37:23.609Z,60.08
2019-05-12T07:38:25.698Z,61.35
2019-05-12T07:39:24.194Z,57.52
2019-05-12T07:40:25.788Z,54.33
2019-05-12T07:41:23.780Z,56.68
2019-05-12T07:42:30.976Z,58.64
2019-05-12T07:43:24.247Z,54.82
2019-05-12T07:44:25.117Z,52.91
2019-05-12T07:45:25.092Z,56.40
2019-05-12T07:46:25.030Z,59.00
2019-05-12T07:47:27.261Z,59.03
2019-05-12T07:48:23.391Z,58.45
2019-05-12T07:49:33.835Z,59.30
2019-05-12T07:50:27.024Z,60.21
2019-05-12T07:51:24.202Z,57.90
2019-05-12T07:52:24.281Z,54.33
2019-05-12T07:53:23.364Z,58.11
2019-05-12T07:54:23.625Z,59.60
2019-05-12T07:55:23.693Z,56.55
2019-05-12T07:56:25.992Z,52.10
2019-05-12T07:57:24.201Z,48.76
2019-05-12T07:58:23.966Z,49.16
2019-05-12T07:59:26.659Z,46.71
2019-05-12T08:00:25.724Z,47.24
2019-05-12T08:01:23.582Z,49.48
2019-05-12T08:02:23.262Z,49.69
2019-05-12T08:03:24.341Z,50.67
2019-05-12T08:04:23.935Z,52.35
2019-05-12T08:05:24.035Z,53.16
2019-05-12T08:06:24.312Z,53.52
2019-05-12T08:07:28.277Z,54.90
2019-05-12T08:08:23.625Z,55.54
2019-05-12T08:09:24.202Z,57.29
2019-05-12T08:10:23.531Z,55.71
2019-05-12T08:11:23.610Z,51.79
2019-05-12T08:12:23.766Z,51.18
2019-05-12T08:13:23.806Z,48.68
2019-05-12T08:14:28.836Z,47.07
2019-05-12T08:15:24.656Z,44.27
2019-05-12T08:16:25.568Z,44.87
2019-05-12T08:17:24.649Z,43.77
2019-05-12T08:18:24.468Z,47.89
2019-05-12T08:19:28.079Z,48.48
2019-05-12T08:20:23.871Z,50.26
2019-05-12T08:21:24.153Z,48.22
2019-05-12T08:22:27.194Z,46.80
2019-05-12T08:23:23.473Z,48.28
2019-05-12T08:24:23.675Z,50.54
2019-05-12T08:25:27.085Z,50.34
2019-05-12T08:26:23.953Z,52.67
2019-05-12T08:27:23.448Z,51.25
2019-05-12T08:28:28.129Z,51.48
2019-05-12T08:29:24.346Z,48.22
2019-05-12T08:30:23.954Z,45.51
2019-05-12T08:31:23.483Z,43.69
2019-05-12T08:32:23.442Z,43.00
2019-05-12T08:33:23.782Z,43.26
2019-05-12T08:34:23.754Z,43.87
2019-05-12T08:35:29.453Z,44.12
2019-05-12T08:36:23.692Z,42.40
2019-05-12T08:37:24.266Z,43.08
2019-05-12T08:38:21.779Z,43.47
2019-05-12T08:39:25.408Z,47.41
2019-05-12T08:40:21.763Z,49.79
2019-05-12T08:41:23.532Z,49.86
2019-05-12T08:42:23.858Z,51.81
2019-05-12T08:43:23.838Z,52.17
2019-05-12T08:44:24.582Z,49.87
2019-05-12T08:45:28.870Z,51.16
2019-05-12T08:46:24.280Z,51.61
2019-05-12T08:47:23.823Z,52.78
2019-05-12T08:48:24.807Z,53.85
2019-05-12T08:49:23.479Z,53.55
2019-05-12T08:50:25.602Z,54.16
2019-05-12T08:51:24.995Z,54.39
2019-05-12T08:52:23.599Z,53.31
2019-05-12T08:53:23.560Z,49.08
2019-05-12T08:54:23.300Z,46.78
2019-05-12T08:55:22.736Z,44.85
2019-05-12T08:56:24.000Z,44.90
2019-05-12T08:57:24.040Z,43.30
2019-05-12T08:58:31.575Z,42.78
2019-05-12T08:59:26.630Z,42.37
2019-05-12T09:00:23.667Z,41.35
2019-05-12T09:01:28.604Z,41.20
2019-05-12T09:02:24.082Z,39.95
2019-05-12T09:03:27.134Z,39.03
2019-05-12T09:04:24.228Z,40.84
2019-05-12T09:05:28.065Z,39.09
2019-05-12T09:06:23.773Z,39.72
2019-05-12T09:07:21.470Z,42.55
2019-05-12T09:08:21.546Z,44.92
2019-05-12T09:09:23.260Z,44.03
2019-05-12T09:10:23.411Z,45.51
2019-05-12T09:11:21.444Z,46.70
2019-05-12T09:12:23.313Z,45.03
2019-05-12T09:13:23.370Z,43.20
2019-05-12T09:14:23.750Z,42.92
2019-05-12T09:15:23.404Z,45.46
2019-05-12T09:16:21.370Z,47.58
2019-05-12T09:17:23.281Z,49.46
2019-05-12T09:18:23.530Z,50.15
2019-05-12T09:19:24.957Z,50.21
2019-05-12T09:20:21.329Z,46.39
2019-05-12T09:21:23.747Z,45.03
2019-05-12T09:22:24.135Z,44.24
2019-05-12T09:23:21.290Z,42.52
2019-05-12T09:24:25.851Z,42.78
2019-05-12T09:25:23.906Z,41.83
2019-05-12T09:26:26.640Z,40.11
2019-05-12T09:27:24.137Z,40.48
2019-05-12T09:28:21.241Z,41.32
2019-05-12T09:29:21.237Z,38.82
2019-05-12T09:30:21.226Z,40.61
2019-05-12T09:31:25.358Z,43.24
2019-05-12T09:32:23.582Z,44.18
2019-05-12T09:33:26.257Z,43.24
2019-05-12T09:34:23.529Z,40.86
2019-05-12T09:35:23.468Z,40.61
2019-05-12T09:36:21.776Z,39.75
2019-05-12T09:37:21.160Z,39.31
2019-05-12T09:38:23.003Z,38.48
2019-05-12T09:39:23.338Z,40.25
2019-05-12T09:40:22.806Z,43.73
2019-05-12T09:41:21.100Z,46.02
2019-05-12T09:42:25.710Z,47.61
2019-05-12T09:43:23.932Z,48.80
2019-05-12T09:44:26.496Z,50.57
2019-05-12T09:45:23.934Z,51.41
2019-05-12T09:46:23.179Z,52.55
2019-05-12T09:47:25.254Z,51.06
2019-05-12T09:48:24.537Z,46.04
2019-05-12T09:49:24.853Z,42.40
2019-05-12T09:50:23.358Z,40.80
2019-05-12T09:51:21.016Z,38.97
2019-05-12T09:52:23.310Z,40.05
2019-05-12T09:53:23.693Z,41.66
2019-05-12T09:54:27.807Z,44.36
2019-05-12T09:55:24.416Z,45.54
2019-05-12T09:56:20.952Z,47.49
2019-05-12T09:57:20.961Z,47.63
2019-05-12T09:58:27.621Z,48.39
2019-05-12T09:59:25.279Z,48.24
2019-05-12T10:00:20.912Z,44.66
2019-05-12T10:01:20.923Z,42.47
2019-05-12T10:02:21.171Z,41.00
2019-05-12T10:03:20.879Z,39.55
2019-05-12T10:04:20.881Z,38.42
2019-05-12T10:05:20.845Z,37.56
2019-05-12T10:06:21.338Z,36.52
2019-05-12T10:07:20.849Z,35.38
2019-05-12T10:08:20.826Z,35.46
2019-05-12T10:09:20.828Z,35.23
2019-05-12T10:10:20.810Z,36.30
2019-05-12T10:11:21.075Z,34.78
2019-05-12T10:12:20.809Z,38.40
2019-05-12T10:13:28.158Z,39.91
2019-05-12T10:14:23.524Z,42.31
2019-05-12T10:15:24.757Z,43.51
2019-05-12T10:16:23.923Z,45.20
2019-05-12T10:17:28.409Z,45.21
2019-05-12T10:18:21.714Z,45.29
2019-05-12T10:19:20.701Z,43.41
2019-05-12T10:20:21.648Z,41.08
2019-05-12T10:21:20.658Z,39.61
2019-05-12T10:22:20.661Z,38.86
2019-05-12T10:23:24.555Z,37.63
2019-05-12T10:24:21.649Z,37.01
2019-05-12T10:25:23.165Z,37.53
2019-05-12T10:26:21.625Z,35.88
2019-05-12T10:27:21.049Z,35.75
2019-05-12T10:28:23.631Z,37.06
2019-05-12T10:29:21.117Z,35.73
2019-05-12T10:30:20.628Z,35.53
2019-05-12T10:31:20.610Z,34.76
2019-05-12T10:32:20.588Z,34.76
2019-05-12T10:33:20.601Z,34.81
2019-05-12T10:34:20.600Z,37.06
2019-05-12T10:35:23.854Z,36.39
2019-05-12T10:36:21.562Z,35.77
2019-05-12T10:37:25.230Z,35.63
2019-05-12T10:38:24.010Z,34.74
2019-05-12T10:39:20.509Z,33.72
2019-05-12T10:40:20.513Z,33.80
2019-05-12T10:41:20.526Z,33.40
2019-05-12T10:42:20.477Z,32.76
2019-05-12T10:43:20.477Z,32.75
2019-05-12T10:44:20.485Z,32.35
2019-05-12T10:45:20.838Z,33.64
2019-05-12T10:46:24.470Z,34.02
2019-05-12T10:47:23.803Z,36.82
2019-05-12T10:48:20.425Z,38.11
2019-05-12T10:49:20.409Z,39.76
2019-05-12T10:50:20.423Z,41.22
2019-05-12T10:51:20.430Z,43.30
2019-05-12T10:52:20.398Z,44.74
2019-05-12T10:53:20.377Z,44.85
2019-05-12T10:54:20.357Z,43.65
2019-05-12T10:55:20.374Z,40.59
2019-05-12T10:56:20.327Z,38.70
2019-05-12T10:57:20.330Z,37.06
2019-05-12T10:58:20.268Z,36.72
2019-05-12T10:59:30.148Z,35.08
2019-05-12T11:00:25.236Z,34.64
2019-05-12T11:01:20.249Z,32.63
2019-05-12T11:02:25.265Z,33.11
2019-05-12T11:03:21.231Z,33.18
2019-05-12T11:04:25.151Z,31.68
2019-05-12T11:05:23.205Z,33.80
2019-05-12T11:06:20.199Z,33.18
2019-05-12T11:07:22.907Z,33.48
2019-05-12T11:08:21.195Z,32.97
2019-05-12T11:09:21.387Z,32.97
2019-05-12T11:10:23.234Z,33.05
2019-05-12T11:11:20.161Z,32.21
2019-05-12T11:12:25.275Z,32.37
2019-05-12T11:13:23.218Z,30.54
2019-05-12T11:14:25.130Z,30.05
2019-05-12T11:15:21.129Z,32.64
2019-05-12T11:16:22.841Z,34.54
2019-05-12T11:17:21.189Z,35.39
2019-05-12T11:18:24.875Z,35.75
2019-05-12T11:19:21.065Z,34.27
2019-05-12T11:20:20.070Z,34.11
2019-05-12T11:21:20.096Z,36.91
2019-05-12T11:22:20.045Z,38.48
2019-05-12T11:23:20.034Z,39.12
2019-05-12T11:24:20.059Z,37.31
2019-05-12T11:25:20.004Z,37.36
2019-05-12T11:26:20.022Z,36.02
2019-05-12T11:27:19.987Z,36.46
2019-05-12T11:28:19.994Z,35.31
2019-05-12T11:29:19.972Z,34.98
2019-05-12T11:30:19.957Z,34.73
2019-05-12T11:31:19.946Z,33.99
2019-05-12T11:32:19.980Z,33.98
2019-05-12T11:33:20.034Z,33.47
2019-05-12T11:34:19.900Z,33.64
2019-05-12T11:35:19.902Z,33.89
2019-05-12T11:36:19.920Z,31.28
2019-05-12T11:37:19.884Z,31.37
2019-05-12T11:38:19.916Z,32.87
2019-05-12T11:39:19.869Z,36.52
2019-05-12T11:40:19.860Z,37.62
2019-05-12T11:41:20.438Z,40.52
2019-05-12T11:42:19.830Z,41.87
2019-05-12T11:43:19.827Z,41.60
2019-05-12T11:44:19.816Z,41.64
2019-05-12T11:45:19.833Z,41.64
2019-05-12T11:46:19.781Z,41.74
2019-05-12T11:47:24.402Z,41.05
2019-05-12T11:48:20.738Z,43.00
2019-05-12T11:49:21.742Z,43.84
2019-05-12T11:50:20.738Z,45.25
2019-05-12T11:51:20.881Z,46.31
2019-05-12T11:52:20.725Z,47.75
2019-05-12T11:53:21.901Z,48.69
2019-05-12T11:54:20.718Z,49.73
2019-05-12T11:55:21.236Z,50.67
2019-05-12T11:56:20.662Z,51.00
2019-05-12T11:57:20.021Z,51.61
2019-05-12T11:58:20.646Z,51.53
2019-05-12T11:59:19.674Z,51.43
2019-05-12T12:00:19.616Z,51.00
2019-05-12T12:01:19.606Z,50.67
2019-05-12T12:02:20.137Z,50.55
2019-05-12T12:03:20.596Z,50.24
2019-05-12T12:04:19.597Z,49.58
2019-05-12T12:05:19.564Z,47.94
2019-05-12T12:06:19.547Z,47.94
2019-05-12T12:07:19.547Z,47.74
2019-05-12T12:08:19.550Z,46.86
2019-05-12T12:09:19.524Z,44.32
2019-05-12T12:10:19.539Z,41.81
2019-05-12T12:11:24.770Z,41.13
2019-05-12T12:12:20.511Z,39.05
2019-05-12T12:13:25.538Z,37.63
2019-05-12T12:14:20.462Z,37.08
2019-05-12T12:15:20.572Z,35.16
2019-05-12T12:16:20.442Z,34.63
2019-05-12T12:17:22.807Z,33.66
2019-05-12T12:18:20.423Z,33.14
2019-05-12T12:19:19.446Z,33.14
2019-05-12T12:20:22.534Z,34.39
2019-05-12T12:21:19.410Z,35.48
2019-05-12T12:22:20.480Z,37.16
2019-05-12T12:23:20.375Z,38.44
2019-05-12T12:24:21.282Z,41.22
2019-05-12T12:25:20.381Z,42.09
2019-05-12T12:26:20.032Z,42.86
2019-05-12T12:27:19.343Z,44.52
2019-05-12T12:28:19.323Z,45.36
2019-05-12T12:29:19.315Z,45.28
2019-05-12T12:30:20.054Z,46.01
2019-05-12T12:31:19.310Z,46.51
2019-05-12T12:32:20.486Z,46.33
2019-05-12T12:33:19.273Z,46.21
2019-05-12T12:34:25.262Z,44.99
2019-05-12T12:35:20.259Z,44.91
2019-05-12T12:36:21.029Z,46.23
2019-05-12T12:37:24.131Z,46.03
2019-05-12T12:38:20.213Z,46.23
2019-05-12T12:39:19.201Z,46.84
2019-05-12T12:40:19.190Z,47.45
2019-05-12T12:41:19.198Z,47.25
2019-05-12T12:42:19.183Z,47.45
2019-05-12T12:43:19.164Z,46.31
2019-05-12T12:44:19.158Z,46.44
2019-05-12T12:45:19.136Z,46.13
2019-05-12T12:46:21.579Z,46.66
2019-05-12T12:47:27.422Z,46.05
2019-05-12T12:48:24.275Z,44.93
2019-05-12T12:49:20.112Z,44.93
2019-05-12T12:50:20.217Z,44.32
2019-05-12T12:51:20.145Z,45.03
2019-05-12T12:52:19.077Z,44.63